Stanford, Montana
Current Conditions -  °F | °C
As of 6:54 AM on Friday 24 Oct 2014 (Local Time) from KLWT Reporting Station
Overcast Overcast  
Wind Chill: 50°   Ceiling: 8000
Heat Index: 50°   Visibility: 10mi
Dew Point: 36°   Wind: 8mph
Humidity: 59%   Direction: 290°WNW
Pressure: 30.01"   Gusts: NA
Location:  47.15°N, 110.22°W
Report Text: KLWT 241254Z AUTO 29007KT 10SM OVC080 10/02 A3001 RMK AO2 SLP151 T01000022
Loading
Personal Weather Stations






























Interactive Weather Map
Tropical Storm Tracking
New forecast layout! Learn more

10-Day Weather Forecast

Advertisements
Track Severe Weather on mobile